Time;durP1;ratioP1;P1;durP2;ratioP2;P2;SDS_P1;SDS_P2;PMS_P1;PMS_P2;Temp;Humidity;BMP_temperature;BMP_pressure;BME280_temperature;BME280_humidity;BME280_pressure;Samples;Min_cycle;Max_cycle;Signal;HPM_P1;HPM_P2
2023/01/08 00:01:43;;;;;;;;;;;4.10;88.50;;;-151.14;100.00;62537.16;4974875;28;20125;-82
2023/01/08 00:04:12;;;;;;;;;;;4.10;88.60;;;-151.14;100.00;62537.16;4959785;28;19928;-82
2023/01/08 00:06:40;;;;;;;;;;;4.10;88.50;;;-151.14;100.00;62537.16;4968307;28;19928;-82
2023/01/08 00:09:09;;;;;;;;;;;4.10;88.50;;;-151.14;100.00;62537.16;4975669;28;20229;-82
2023/01/08 00:11:37;;;;;;;;;;;4.10;88.60;;;-151.14;100.00;62537.16;4992330;28;20102;-82
2023/01/08 00:14:05;;;;;;;;;;;4.10;88.70;;;-151.14;100.00;62537.16;4975960;28;20160;-81
2023/01/08 00:16:33;;;;;;;;;;;4.10;88.70;;;2.75;100.00;62537.16;4959891;28;19922;-81
2023/01/08 00:19:01;;;;;;;;;;;4.10;88.70;;;-151.14;100.00;62537.16;4975917;28;19922;-82
2023/01/08 00:21:30;;;;;;;;;;;4.10;88.60;;;2.74;100.00;62537.16;4959993;28;19926;-82
2023/01/08 00:23:58;;;;;;;;;;;4.00;88.50;;;2.74;100.00;62537.16;4959664;28;19922;-82
2023/01/08 00:26:26;;;;;;;;;;;4.10;88.50;;;-151.14;100.00;62537.16;4993048;28;19928;-82
2023/01/08 00:28:54;;;;;;;;;;;4.00;88.50;;;-151.14;100.00;62537.16;4959664;28;19922;-82
2023/01/08 00:31:22;;;;;;;;;;;4.00;88.50;;;-151.14;100.00;62537.16;4975673;28;20137;-82
2023/01/08 00:33:50;;;;;;;;;;;4.00;88.50;;;2.73;100.00;62537.16;4975211;28;19982;-81
2023/01/08 00:36:18;;;;;;;;;;;4.00;88.50;;;-151.14;100.00;62537.16;4959427;28;20217;-82
2023/01/08 00:38:48;;;;;;;;;;;4.00;88.50;;;-151.14;100.00;62537.16;4975434;28;20121;-81
2023/01/08 00:41:15;;;;;;;;;;;4.00;88.50;;;-151.14;100.00;62537.16;4991814;28;19922;-82
2023/01/08 00:43:43;;;;;;;;;;;4.00;88.40;;;-151.14;100.00;62537.16;4959375;28;20206;-82
2023/01/08 00:46:11;;;;;;;;;;;4.00;88.50;;;-151.14;100.00;62537.16;4975332;28;19928;-82
2023/01/08 00:48:39;;;;;;;;;;;4.00;88.40;;;-151.14;100.00;62537.16;4975228;28;19922;-82
2023/01/08 00:51:07;;;;;;;;;;;4.00;88.40;;;-151.14;100.00;62537.16;4975246;28;20240;-82
2023/01/08 00:53:36;;;;;;;;;;;4.00;88.40;;;2.73;100.00;62537.16;4974854;28;19925;-82
2023/01/08 00:56:07;;;;;;;;;;;4.00;88.40;;;-151.14;100.00;62537.16;4975239;28;19922;-82
2023/01/08 00:58:35;;;;;;;;;;;4.00;88.50;;;-151.14;100.00;62537.16;4959157;28;20118;-82
2023/01/08 01:01:03;;;;;;;;;;;4.00;88.40;;;-151.14;100.00;62537.16;4995296;28;19922;-82
2023/01/08 01:03:31;;;;;;;;;;;4.00;88.60;;;-151.14;100.00;62537.16;4994273;28;20099;-82
2023/01/08 01:06:02;;;;;;;;;;;4.00;88.50;;;-151.14;100.00;62537.16;4994716;28;19921;-82
2023/01/08 01:08:30;;;;;;;;;;;4.00;88.50;;;-151.14;100.00;62537.16;4978271;28;19922;-82
2023/01/08 01:10:58;;;;;;;;;;;4.00;88.50;;;-151.14;100.00;62537.16;4994635;28;19928;-82
2023/01/08 01:13:27;;;;;;;;;;;4.00;88.50;;;-151.14;100.00;62537.16;4994337;28;20114;-82
2023/01/08 01:15:59;;;;;;;;;;;4.00;88.50;;;2.72;100.00;62537.16;5008234;28;19928;-82
2023/01/08 01:18:26;;;;;;;;;;;4.00;88.50;;;-151.14;100.00;62537.16;4975125;28;19922;-82
2023/01/08 01:20:54;;;;;;;;;;;4.00;88.50;;;2.69;100.00;62537.16;4992310;28;19936;-82
2023/01/08 01:23:22;;;;;;;;;;;4.00;88.50;;;-151.14;100.00;62537.16;4958759;28;19922;-82
2023/01/08 01:25:50;;;;;;;;;;;4.00;88.50;;;-151.14;100.00;62537.16;4958796;28;19928;-82
2023/01/08 01:28:18;;;;;;;;;;;4.00;88.40;;;-151.14;100.00;62537.16;4958684;28;20099;-82
2023/01/08 01:30:53;;;;;;;;;;;4.00;88.40;;;-151.14;100.00;62537.16;4990893;28;19928;-82
2023/01/08 01:33:21;;;;;;;;;;;4.00;88.50;;;-151.14;100.00;62537.16;4974734;28;20206;-82
2023/01/08 01:35:49;;;;;;;;;;;4.00;88.40;;;2.69;100.00;62537.16;4991707;28;19922;-82
2023/01/08 01:38:17;;;;;;;;;;;4.00;88.50;;;-151.14;100.00;62537.16;4993321;28;19928;-82
2023/01/08 01:40:45;;;;;;;;;;;4.00;88.50;;;-151.14;100.00;62537.16;4977843;28;19943;-82
2023/01/08 01:43:13;;;;;;;;;;;4.00;89.30;;;-151.14;100.00;62537.16;4957497;28;19928;-82
2023/01/08 01:45:41;;;;;;;;;;;4.00;88.50;;;-151.14;100.00;62537.16;4972528;28;19938;-81
2023/01/08 01:48:11;;;;;;;;;;;4.00;88.50;;;-151.14;100.00;62537.16;4955395;28;19923;-82
2023/01/08 01:50:41;;;;;;;;;;;4.00;88.50;;;2.68;100.00;62537.16;4956087;28;19922;-82
2023/01/08 01:53:10;;;;;;;;;;;4.00;88.50;;;-151.14;100.00;62537.16;4974772;28;19922;-82
2023/01/08 01:55:38;;;;;;;;;;;4.00;88.50;;;-151.14;100.00;62537.16;4974864;28;20214;-82
2023/01/08 01:58:07;;;;;;;;;;;4.00;88.50;;;-151.14;100.00;62537.16;4985787;28;19922;-82
2023/01/08 02:00:35;;;;;;;;;;;4.00;88.60;;;-151.14;100.00;62537.16;4974748;28;20210;-81
2023/01/08 02:03:04;;;;;;;;;;;4.00;88.60;;;-151.14;100.00;62537.16;4974778;28;19928;-82
2023/01/08 02:05:38;;;;;;;;;;;4.00;88.50;;;-151.14;100.00;62537.16;4974379;28;19922;-82
2023/01/08 02:08:08;;;;;;;;;;;4.00;88.50;;;-151.14;100.00;62537.16;4971347;28;19929;-82
2023/01/08 02:10:39;;;;;;;;;;;4.00;88.60;;;-151.14;100.00;62537.16;4994116;28;19957;-82
2023/01/08 02:13:09;;;;;;;;;;;4.00;88.50;;;-151.14;100.00;62537.16;5007625;28;19921;-81
2023/01/08 02:15:40;;;;;;;;;;;4.00;88.50;;;-151.14;100.00;62537.16;5014610;28;20213;-82
2023/01/08 02:18:09;;;;;;;;;;;4.00;88.70;;;-151.14;100.00;62537.16;4984998;28;19922;-82
2023/01/08 02:20:40;;;;;;;;;;;4.00;88.60;;;2.65;100.00;62537.16;4977447;28;19926;-81
2023/01/08 02:23:20;;;;;;;;;;;4.00;88.70;;;-151.14;100.00;62537.16;4988633;28;19921;-82
2023/01/08 02:26:10;;;;;;;;;;;4.00;88.60;;;-151.14;100.00;62537.16;4997009;28;20113;-82
2023/01/08 02:28:40;;;;;;;;;;;4.00;88.50;;;-151.14;100.00;62537.16;4999671;28;19948;-82
2023/01/08 02:31:08;;;;;;;;;;;4.00;88.50;;;-151.14;100.00;62537.16;4961201;28;20094;-82
2023/01/08 02:33:36;;;;;;;;;;;4.00;88.50;;;-151.14;100.00;62537.16;4961059;28;19930;-82
2023/01/08 02:36:37;;;;;;;;;;;4.00;88.40;;;-151.14;100.00;62537.16;4977031;28;19922;-82
2023/01/08 02:39:16;;;;;;;;;;;4.00;88.40;;;-151.14;100.00;62537.16;4953225;28;19937;-82
2023/01/08 02:42:02;;;;;;;;;;;4.00;88.50;;;-151.14;100.00;62537.16;4980741;28;19928;-82
2023/01/08 02:44:34;;;;;;;;;;;4.00;88.50;;;-151.14;100.00;62537.16;4996847;28;19927;-82
2023/01/08 02:47:03;;;;;;;;;;;4.00;88.60;;;-151.14;100.00;62537.16;4996489;28;19929;-82
2023/01/08 02:49:31;;;;;;;;;;;3.90;88.60;;;-151.14;100.00;62537.16;4961761;28;19921;-82
2023/01/08 02:51:59;;;;;;;;;;;4.00;88.50;;;-151.14;100.00;62537.16;4977519;28;19922;-82
2023/01/08 02:54:30;;;;;;;;;;;3.90;88.50;;;-151.14;100.00;62537.16;4994041;28;19929;-82
2023/01/08 02:57:01;;;;;;;;;;;3.90;88.60;;;-151.14;100.00;62537.16;4977106;28;19922;-82
2023/01/08 02:59:29;;;;;;;;;;;4.00;88.50;;;2.64;100.00;62537.16;4960704;28;19922;-82
2023/01/08 03:01:58;;;;;;;;;;;3.90;88.50;;;2.62;100.00;62537.16;4960567;28;19928;-82
2023/01/08 03:04:26;;;;;;;;;;;3.90;88.50;;;2.62;100.00;62537.16;4992763;28;19921;-82
2023/01/08 03:06:53;;;;;;;;;;;3.90;88.50;;;-151.14;100.00;62537.16;4996367;28;20137;-82
2023/01/08 03:09:21;;;;;;;;;;;3.90;88.50;;;-151.14;100.00;62537.16;4980127;28;19921;-82
2023/01/08 03:11:54;;;;;;;;;;;3.90;88.50;;;-151.14;100.00;62537.16;4996693;28;20094;-82
2023/01/08 03:14:25;;;;;;;;;;;3.90;88.50;;;2.63;100.00;62537.16;4979956;28;19928;-81
2023/01/08 03:16:55;;;;;;;;;;;3.90;88.50;;;4.84;100.00;62537.16;4996096;28;19922;-82
2023/01/08 03:19:25;;;;;;;;;;;3.90;88.50;;;-151.14;100.00;62537.16;4996087;28;19922;-82
2023/01/08 03:21:54;;;;;;;;;;;3.90;88.50;;;-151.14;100.00;62537.16;5012758;28;19928;-82
2023/01/08 03:24:24;;;;;;;;;;;3.90;88.50;;;-151.14;100.00;62537.16;4979809;28;19921;-82
2023/01/08 03:26:53;;;;;;;;;;;3.90;88.50;;;2.61;100.00;62537.16;4996141;28;19922;-82
2023/01/08 03:29:23;;;;;;;;;;;3.90;88.50;;;2.60;100.00;62537.16;4979968;28;20119;-82
2023/01/08 03:31:52;;;;;;;;;;;3.90;88.50;;;-151.14;100.00;62537.16;4995908;28;20229;-82
2023/01/08 03:34:20;;;;;;;;;;;3.90;88.50;;;-151.14;100.00;62537.16;4967739;28;19921;-82
2023/01/08 03:36:50;;;;;;;;;;;3.90;88.50;;;-151.14;100.00;62537.16;4976302;28;19929;-82
2023/01/08 03:39:20;;;;;;;;;;;3.90;88.50;;;-151.14;100.00;62537.16;4976517;28;19928;-82
2023/01/08 03:41:48;;;;;;;;;;;3.90;88.40;;;2.60;100.00;62537.16;4993086;28;20213;-82
2023/01/08 03:44:16;;;;;;;;;;;3.90;88.50;;;-151.14;100.00;62537.16;4976359;28;19922;-82
2023/01/08 03:46:46;;;;;;;;;;;3.90;88.50;;;-151.14;100.00;62537.16;4992546;28;20113;-82
2023/01/08 03:49:15;;;;;;;;;;;3.90;88.50;;;18.09;100.00;62537.16;4960567;28;19921;-82
2023/01/08 03:51:44;;;;;;;;;;;3.90;88.50;;;2.63;100.00;62537.16;4976588;28;19928;-82
2023/01/08 03:54:14;;;;;;;;;;;3.90;88.40;;;-151.14;100.00;62537.16;4960072;28;19928;-81
2023/01/08 03:56:42;;;;;;;;;;;3.90;88.50;;;-151.14;100.00;62537.16;4976214;28;19930;-82
2023/01/08 03:59:10;;;;;;;;;;;3.90;88.50;;;-151.14;100.00;62537.16;4959982;28;19928;-82
2023/01/08 04:01:38;;;;;;;;;;;3.90;88.40;;;-151.14;100.00;62537.16;4960524;28;19922;-82
2023/01/08 04:04:06;;;;;;;;;;;3.90;88.40;;;-151.14;100.00;62537.16;4975994;28;20118;-82
2023/01/08 04:06:35;;;;;;;;;;;3.90;88.50;;;-151.14;100.00;62537.16;4975704;28;19921;-82
2023/01/08 04:09:03;;;;;;;;;;;3.90;88.50;;;2.57;100.00;62537.16;4960191;28;19928;-82
2023/01/08 04:11:31;;;;;;;;;;;3.90;88.40;;;-151.14;100.00;62537.16;4976103;28;19928;-82
2023/01/08 04:13:59;;;;;;;;;;;3.90;88.50;;;2.58;100.00;62537.16;4959555;28;20099;-82
2023/01/08 04:16:27;;;;;;;;;;;3.90;88.50;;;-151.14;100.00;62537.16;4992075;28;19922;-82
2023/01/08 04:18:55;;;;;;;;;;;3.90;88.60;;;-151.14;100.00;62537.16;4976095;28;20121;-82
2023/01/08 04:21:23;;;;;;;;;;;3.90;88.50;;;-151.14;100.00;62537.16;4960071;28;19921;-81
2023/01/08 04:23:52;;;;;;;;;;;3.90;88.50;;;-151.14;100.00;62537.16;4975607;28;20121;-82
2023/01/08 04:26:20;;;;;;;;;;;3.90;89.30;;;-151.14;100.00;62537.16;4975744;28;19922;-81
2023/01/08 04:28:48;;;;;;;;;;;3.90;88.60;;;-151.14;100.00;62537.16;4959732;28;19936;-82
2023/01/08 04:31:16;;;;;;;;;;;3.90;88.40;;;-151.14;100.00;62537.16;4975940;28;19921;-81
2023/01/08 04:33:44;;;;;;;;;;;3.90;88.50;;;-151.14;100.00;62537.16;4959526;28;19928;-82
2023/01/08 04:36:12;;;;;;;;;;;3.90;88.40;;;-151.14;100.00;62537.16;4991429;28;19922;-81
2023/01/08 04:38:40;;;;;;;;;;;3.90;88.40;;;2.56;100.00;62537.16;4975570;28;19922;-82
2023/01/08 04:41:09;;;;;;;;;;;3.90;88.40;;;-151.14;100.00;62537.16;4975902;28;19990;-82
2023/01/08 04:43:37;;;;;;;;;;;3.90;88.50;;;-151.14;100.00;62537.16;4975667;28;19921;-81
2023/01/08 04:46:06;;;;;;;;;;;3.90;88.40;;;-151.14;100.00;62537.16;4959365;28;19922;-82
2023/01/08 04:48:34;;;;;;;;;;;3.90;88.60;;;2.55;100.00;62537.16;4959619;28;19928;-81
2023/01/08 04:51:03;;;;;;;;;;;3.90;88.50;;;-151.14;100.00;62537.16;4975659;28;19922;-82
2023/01/08 04:53:33;;;;;;;;;;;3.90;88.50;;;-151.14;100.00;62537.16;4959120;28;19929;-82
2023/01/08 04:56:03;;;;;;;;;;;3.90;88.50;;;-151.14;100.00;62537.16;4975140;28;20231;-82
2023/01/08 04:58:33;;;;;;;;;;;3.90;88.40;;;-151.14;100.00;62537.16;4975207;28;19929;-82
2023/01/08 05:01:00;;;;;;;;;;;3.90;88.50;;;-151.14;100.00;62537.16;4975585;28;19928;-82
2023/01/08 05:03:28;;;;;;;;;;;3.90;88.40;;;-151.14;100.00;62537.16;4975054;28;20026;-82
2023/01/08 05:05:56;;;;;;;;;;;3.90;88.40;;;-151.14;100.00;62537.16;4991247;28;20121;-82
2023/01/08 05:08:24;;;;;;;;;;;3.90;88.50;;;-151.14;100.00;62537.16;4975284;28;20121;-82
2023/01/08 05:10:52;;;;;;;;;;;3.90;88.50;;;-151.14;100.00;62537.16;4975324;28;20217;-81
2023/01/08 05:13:20;;;;;;;;;;;3.90;88.50;;;-151.14;100.00;62537.16;4974957;28;19928;-82
2023/01/08 05:15:49;;;;;;;;;;;3.90;88.50;;;-151.14;100.00;62537.16;4975123;28;20122;-81
2023/01/08 05:18:17;;;;;;;;;;;3.80;88.40;;;-151.14;100.00;62537.16;4959166;28;19921;-81
2023/01/08 05:20:45;;;;;;;;;;;3.90;88.40;;;-151.14;100.00;62537.16;4974967;28;19922;-82
2023/01/08 05:23:13;;;;;;;;;;;3.80;88.30;;;-151.14;100.00;62537.16;4992450;28;19922;-82
2023/01/08 05:25:41;;;;;;;;;;;3.90;88.40;;;-151.14;100.00;62537.16;4991134;28;19928;-81
2023/01/08 05:28:09;;;;;;;;;;;3.90;88.50;;;-151.14;100.00;62537.16;4958996;28;20235;-82
2023/01/08 05:30:37;;;;;;;;;;;3.80;88.20;;;-151.14;100.00;62537.16;4958866;28;19922;-82
2023/01/08 05:33:06;;;;;;;;;;;3.80;88.30;;;-151.14;100.00;62537.16;4975144;28;19936;-82
2023/01/08 05:35:34;;;;;;;;;;;3.80;88.30;;;-151.14;100.00;62537.16;4974687;28;19928;-82
2023/01/08 05:38:02;;;;;;;;;;;3.80;88.20;;;-151.14;100.00;62537.16;4974989;28;19922;-82
2023/01/08 05:40:30;;;;;;;;;;;3.80;88.20;;;-151.14;100.00;62537.16;4958865;28;19921;-82
2023/01/08 05:42:59;;;;;;;;;;;3.80;88.30;;;2.51;100.00;62537.16;4958833;28;19928;-82
2023/01/08 05:45:27;;;;;;;;;;;3.80;88.30;;;-151.14;100.00;62537.16;4974362;28;19922;-81
2023/01/08 05:47:55;;;;;;;;;;;3.80;88.30;;;2.50;100.00;62537.16;4991210;28;19928;-82
2023/01/08 05:50:24;;;;;;;;;;;3.80;88.30;;;-151.14;100.00;62537.16;4958778;28;19922;-82
2023/01/08 05:52:52;;;;;;;;;;;3.80;88.40;;;-151.14;100.00;62537.16;4974830;28;20240;-81
2023/01/08 05:55:20;;;;;;;;;;;3.80;88.30;;;-151.14;100.00;62537.16;4991516;28;20114;-82
2023/01/08 05:57:48;;;;;;;;;;;3.80;88.20;;;18.09;100.00;62537.16;4974909;28;19922;-82
2023/01/08 06:00:16;;;;;;;;;;;3.80;88.20;;;2.53;100.00;62537.16;4974471;28;19921;-82
2023/01/08 06:02:46;;;;;;;;;;;3.80;88.40;;;2.51;100.00;62537.16;4974717;28;19928;-81
2023/01/08 06:05:14;;;;;;;;;;;3.80;88.40;;;-151.14;100.00;62537.16;4974230;28;19922;-82
2023/01/08 06:07:43;;;;;;;;;;;3.80;88.40;;;-151.14;100.00;62537.16;4958613;28;19922;-82
2023/01/08 06:10:11;;;;;;;;;;;3.80;88.20;;;-151.14;100.00;62537.16;4974627;28;20206;-82
2023/01/08 06:12:39;;;;;;;;;;;3.80;88.30;;;2.49;100.00;62537.16;4958490;28;19929;-82
2023/01/08 06:15:08;;;;;;;;;;;3.80;88.30;;;-151.14;100.00;62537.16;4957948;28;19922;-82
2023/01/08 06:17:36;;;;;;;;;;;3.80;88.40;;;2.49;100.00;62537.16;4958400;28;19922;-82
2023/01/08 06:20:05;;;;;;;;;;;3.80;88.20;;;-151.14;100.00;62537.16;4974473;28;20102;-81
2023/01/08 06:22:33;;;;;;;;;;;3.80;88.20;;;-151.14;100.00;62537.16;4974432;28;19922;-82
2023/01/08 06:25:02;;;;;;;;;;;3.80;88.30;;;-151.14;100.00;62537.16;4957925;28;19928;-81
2023/01/08 06:27:30;;;;;;;;;;;3.80;88.30;;;2.49;100.00;62537.16;4974369;28;19922;-82
2023/01/08 06:29:58;;;;;;;;;;;3.80;88.30;;;-151.14;100.00;62537.16;4974393;28;19989;-82
2023/01/08 06:32:26;;;;;;;;;;;3.80;88.30;;;-151.14;100.00;62537.16;4958358;28;20198;-82
2023/01/08 06:34:54;;;;;;;;;;;3.80;88.40;;;-151.14;100.00;62537.16;4973974;28;19922;-82
2023/01/08 06:37:22;;;;;;;;;;;3.80;88.30;;;-151.14;100.00;62537.16;4975738;28;19928;-82
2023/01/08 06:39:50;;;;;;;;;;;3.80;88.20;;;-151.14;100.00;62537.16;4961404;28;19921;-82
2023/01/08 06:42:19;;;;;;;;;;;3.80;88.30;;;-151.14;100.00;62537.16;4961527;28;19928;-81
2023/01/08 06:44:47;;;;;;;;;;;3.80;88.30;;;2.50;100.00;62537.16;4993424;28;19922;-82
2023/01/08 06:47:15;;;;;;;;;;;3.80;88.40;;;-151.14;100.00;62537.16;4977483;28;19930;-82
2023/01/08 06:49:43;;;;;;;;;;;3.80;88.20;;;-151.14;100.00;62537.16;4961265;28;19928;-82
2023/01/08 06:52:11;;;;;;;;;;;3.80;88.20;;;-151.14;100.00;62537.16;4977401;28;19922;-82
2023/01/08 06:54:39;;;;;;;;;;;3.80;88.40;;;-151.14;100.00;62537.16;4961120;28;19922;-82
2023/01/08 06:57:07;;;;;;;;;;;3.80;88.20;;;-151.14;100.00;62537.16;4977384;28;19922;-82
2023/01/08 06:59:36;;;;;;;;;;;3.80;88.40;;;-151.14;100.00;62537.16;4977129;28;19921;-81
2023/01/08 07:02:04;;;;;;;;;;;3.80;88.30;;;-151.14;100.00;62537.16;4994606;28;20114;-82
2023/01/08 07:04:32;;;;;;;;;;;3.80;88.20;;;-151.14;100.00;62537.16;4993167;28;19922;-82
2023/01/08 07:07:00;;;;;;;;;;;3.80;88.30;;;-151.14;100.00;62537.16;4960769;28;19922;-82
2023/01/08 07:09:28;;;;;;;;;;;3.80;88.20;;;2.51;100.00;62537.16;4977017;28;19922;-81
2023/01/08 07:11:56;;;;;;;;;;;3.80;88.20;;;-151.14;100.00;62537.16;4961109;28;19922;-81
2023/01/08 07:14:24;;;;;;;;;;;3.80;88.40;;;-151.14;100.00;62537.16;4976946;28;20125;-82
2023/01/08 07:16:53;;;;;;;;;;;3.80;88.20;;;-151.14;100.00;62537.16;4976702;28;19922;-81
2023/01/08 07:19:21;;;;;;;;;;;3.90;88.30;;;-151.14;100.00;62537.16;4960837;28;19922;-82
2023/01/08 07:21:49;;;;;;;;;;;3.90;88.30;;;2.53;100.00;62537.16;4960879;28;19930;-82
2023/01/08 07:24:17;;;;;;;;;;;3.90;88.40;;;-151.14;100.00;62537.16;4976849;28;19929;-82
2023/01/08 07:26:45;;;;;;;;;;;3.90;88.30;;;-151.14;100.00;62537.16;4960563;28;20121;-82
2023/01/08 07:29:13;;;;;;;;;;;3.90;88.20;;;-151.14;100.00;62537.16;4960820;28;20237;-82
2023/01/08 07:31:41;;;;;;;;;;;3.90;88.20;;;-151.14;100.00;62537.16;4976651;28;19928;-82
2023/01/08 07:34:10;;;;;;;;;;;3.90;88.20;;;-151.14;100.00;62537.16;4960529;28;19928;-82
2023/01/08 07:36:38;;;;;;;;;;;3.90;88.10;;;2.55;100.00;62537.16;4976398;28;20125;-82
2023/01/08 07:39:06;;;;;;;;;;;3.90;88.20;;;-151.14;100.00;62537.16;4960641;28;19922;-82
2023/01/08 07:41:34;;;;;;;;;;;3.90;88.10;;;2.56;100.00;62537.16;4992792;28;19928;-82
2023/01/08 07:44:02;;;;;;;;;;;3.90;88.10;;;-151.14;100.00;62537.16;4960423;28;19936;-82
2023/01/08 07:46:30;;;;;;;;;;;3.90;88.00;;;-151.14;100.00;62537.16;4993712;28;19929;-82
2023/01/08 07:48:58;;;;;;;;;;;3.90;88.10;;;-151.14;100.00;62537.16;4959599;28;19930;-82
2023/01/08 07:51:28;;;;;;;;;;;3.90;88.10;;;-151.14;100.00;62537.16;4976788;28;19921;-82
2023/01/08 07:53:56;;;;;;;;;;;3.90;88.10;;;18.09;100.00;62537.16;4976345;28;19922;-82
2023/01/08 07:56:24;;;;;;;;;;;3.90;87.90;;;-151.14;100.00;62537.16;4960197;28;19922;-82
2023/01/08 07:58:52;;;;;;;;;;;3.90;87.90;;;-151.14;100.00;62537.16;4992519;28;19921;-82
2023/01/08 08:01:20;;;;;;;;;;;3.90;87.80;;;-151.14;100.00;62537.16;4976535;28;19921;-82
2023/01/08 08:03:48;;;;;;;;;;;3.90;87.90;;;-151.14;100.00;62537.16;4960084;28;20111;-82
2023/01/08 08:06:16;;;;;;;;;;;3.90;87.70;;;-151.14;100.00;62537.16;4960085;28;19928;-82
2023/01/08 08:08:45;;;;;;;;;;;3.90;87.80;;;-151.14;100.00;62537.16;4993506;28;19922;-82
2023/01/08 08:11:13;;;;;;;;;;;4.00;87.80;;;-151.14;100.00;62537.16;4976246;28;19928;-83
2023/01/08 08:13:43;;;;;;;;;;;4.00;87.60;;;-151.14;100.00;62537.16;4959853;28;19921;-82
2023/01/08 08:16:12;;;;;;;;;;;4.00;87.60;;;-151.14;100.00;62537.16;4975876;28;20210;-82
2023/01/08 08:18:39;;;;;;;;;;;4.00;87.50;;;-151.14;100.00;62537.16;4976095;28;19928;-82
2023/01/08 08:21:07;;;;;;;;;;;4.00;87.40;;;-151.14;100.00;62537.16;4975871;28;19937;-82
2023/01/08 08:23:35;;;;;;;;;;;4.00;87.20;;;-151.14;100.00;62537.16;4983072;28;19928;-82
2023/01/08 08:26:06;;;;;;;;;;;4.00;87.10;;;-151.14;100.00;62537.16;4995088;28;19923;-82
2023/01/08 08:28:34;;;;;;;;;;;4.00;87.00;;;2.74;100.00;62537.16;4995269;28;19922;-82
2023/01/08 08:31:02;;;;;;;;;;;4.10;87.10;;;-151.14;100.00;62537.16;4978899;28;19928;-82
2023/01/08 08:33:30;;;;;;;;;;;4.10;87.10;;;-151.14;100.00;62537.16;5012562;28;19922;-82
2023/01/08 08:35:58;;;;;;;;;;;4.10;87.10;;;-151.14;100.00;62537.16;4994962;28;19928;-82
2023/01/08 08:38:26;;;;;;;;;;;4.10;86.90;;;-151.14;100.00;62537.16;4971512;28;19922;-82
2023/01/08 08:40:54;;;;;;;;;;;4.10;86.80;;;-151.14;100.00;62537.16;4956336;28;19922;-82
2023/01/08 08:43:23;;;;;;;;;;;4.20;86.90;;;-151.14;100.00;62537.16;4973708;28;20237;-82
2023/01/08 08:45:51;;;;;;;;;;;4.20;86.90;;;-151.14;100.00;62537.16;4956041;28;19929;-82
2023/01/08 08:48:19;;;;;;;;;;;4.20;86.90;;;-151.14;100.00;62537.16;4940507;28;19922;-82
2023/01/08 08:50:47;;;;;;;;;;;4.30;86.80;;;2.98;100.00;62537.16;4973545;28;19929;-82
2023/01/08 08:53:15;;;;;;;;;;;4.30;86.80;;;-151.14;100.00;62537.16;4956405;28;19930;-82
2023/01/08 08:55:43;;;;;;;;;;;4.30;86.80;;;-151.14;100.00;62537.16;4974865;28;19929;-82
2023/01/08 08:58:12;;;;;;;;;;;4.40;86.70;;;-151.14;100.00;62537.16;4992834;28;19922;-82
2023/01/08 09:00:42;;;;;;;;;;;4.40;86.60;;;3.10;100.00;62537.16;4975096;28;19922;-82
2023/01/08 09:03:11;;;;;;;;;;;4.40;86.40;;;-151.14;100.00;62537.16;4959368;28;19922;-82
2023/01/08 09:05:40;;;;;;;;;;;4.50;86.50;;;3.16;100.00;62537.16;4974981;28;19922;-82
2023/01/08 09:08:08;;;;;;;;;;;4.50;86.40;;;-151.14;100.00;62537.16;4975367;28;19932;-82
2023/01/08 09:10:37;;;;;;;;;;;4.50;86.30;;;-151.14;100.00;62537.16;4991625;28;19922;-82
2023/01/08 09:13:05;;;;;;;;;;;4.50;86.30;;;-151.14;100.00;62537.16;4992578;28;19951;-82
2023/01/08 09:15:32;;;;;;;;;;;4.60;86.10;;;-151.14;100.00;62537.16;4974825;28;20254;-81
2023/01/08 09:18:02;;;;;;;;;;;4.60;86.00;;;-151.14;100.00;62537.16;4959242;28;19930;-82
2023/01/08 09:20:30;;;;;;;;;;;4.60;85.90;;;3.31;100.00;62537.16;4975100;28;19936;-82
2023/01/08 09:22:58;;;;;;;;;;;4.60;85.80;;;3.33;100.00;62537.16;4975121;28;19922;-82
2023/01/08 09:25:26;;;;;;;;;;;4.60;85.60;;;-151.14;100.00;62537.16;4958468;28;19922;-82
2023/01/08 09:27:59;;;;;;;;;;;4.70;85.70;;;3.38;100.00;62537.16;4991308;28;19922;-82
2023/01/08 09:30:27;;;;;;;;;;;4.70;85.60;;;-151.14;100.00;62537.16;4974923;28;20210;-82
2023/01/08 09:32:57;;;;;;;;;;;4.70;85.60;;;-151.14;100.00;62537.16;4975299;28;19945;-82
2023/01/08 09:35:26;;;;;;;;;;;4.70;85.60;;;-151.14;100.00;62537.16;4974446;28;19922;-81
2023/01/08 09:37:54;;;;;;;;;;;4.70;85.50;;;-151.14;100.00;62537.16;4974975;28;20094;-81
2023/01/08 09:40:22;;;;;;;;;;;4.70;85.50;;;-151.14;100.00;62537.16;4974887;28;19928;-81
2023/01/08 09:42:53;;;;;;;;;;;4.70;85.40;;;18.08;100.00;62537.16;4958801;28;19922;-81
2023/01/08 09:45:24;;;;;;;;;;;4.80;85.30;;;-151.14;100.00;62537.16;4958241;28;19922;-82
2023/01/08 09:47:52;;;;;;;;;;;4.80;85.30;;;-151.14;100.00;62537.16;4974954;28;19944;-82
2023/01/08 09:50:20;;;;;;;;;;;4.80;85.20;;;-151.14;100.00;62537.16;4974544;28;19928;-82
2023/01/08 09:52:50;;;;;;;;;;;4.80;85.20;;;-151.14;100.00;62537.16;4958831;28;19922;-81
2023/01/08 09:55:18;;;;;;;;;;;4.80;85.20;;;-151.14;100.00;62537.16;4974117;28;19928;-81
2023/01/08 09:57:46;;;;;;;;;;;4.80;85.10;;;-151.14;100.00;62537.16;4975032;28;19922;-81
2023/01/08 10:00:14;;;;;;;;;;;4.80;85.00;;;-151.14;100.00;62537.16;4990786;28;19928;-81
2023/01/08 10:02:42;;;;;;;;;;;4.80;85.00;;;-151.14;100.00;62537.16;4974902;28;19922;-82
2023/01/08 10:05:12;;;;;;;;;;;4.80;85.00;;;-151.14;100.00;62537.16;4973937;28;19922;-82
2023/01/08 10:07:40;;;;;;;;;;;4.80;85.00;;;-151.14;100.00;62537.16;4958839;28;20094;-81
2023/01/08 10:10:16;;;;;;;;;;;4.80;85.00;;;-151.14;100.00;62537.16;4958528;28;19921;-82
2023/01/08 10:12:44;;;;;;;;;;;4.80;85.00;;;-151.14;100.00;62537.16;4976871;28;19921;-81
2023/01/08 10:15:14;;;;;;;;;;;4.80;84.90;;;-151.14;100.00;62537.16;4977388;28;19922;-81
2023/01/08 10:17:43;;;;;;;;;;;4.80;84.90;;;-151.14;100.00;62537.16;4977992;28;19921;-81
2023/01/08 10:20:12;;;;;;;;;;;4.80;84.90;;;-151.14;100.00;62537.16;4977595;28;19929;-81
2023/01/08 10:22:40;;;;;;;;;;;4.80;84.90;;;-151.14;100.00;62537.16;4977849;28;19922;-81
2023/01/08 10:25:09;;;;;;;;;;;4.80;85.00;;;-151.14;100.00;62537.16;4977168;28;19921;-81
2023/01/08 10:27:45;;;;;;;;;;;4.80;85.00;;;-151.14;100.00;62537.16;4994227;28;19928;-81
2023/01/08 10:30:18;;;;;;;;;;;4.80;84.90;;;-151.14;100.00;62537.16;4977549;28;19922;-81
2023/01/08 10:32:52;;;;;;;;;;;4.80;85.00;;;-151.14;100.00;62537.16;4978006;28;19921;-81
2023/01/08 10:35:21;;;;;;;;;;;4.80;84.90;;;-151.14;100.00;62537.16;4961210;28;19922;-81
2023/01/08 10:37:50;;;;;;;;;;;4.90;85.10;;;-151.14;100.00;62537.16;4961645;28;20126;-81
2023/01/08 10:40:22;;;;;;;;;;;4.80;85.00;;;-151.14;100.00;62537.16;4977454;28;19932;-81
2023/01/08 10:42:52;;;;;;;;;;;4.80;85.00;;;-151.14;100.00;62537.16;4993817;28;19922;-81
2023/01/08 10:45:21;;;;;;;;;;;4.80;85.00;;;-151.14;100.00;62537.16;4960921;28;19922;-81
2023/01/08 10:47:50;;;;;;;;;;;4.80;85.00;;;-151.14;100.00;62537.16;4977174;28;19921;-81
2023/01/08 11:04:22;;;;;;;;;;;4.80;85.00;;;-151.14;100.00;62537.16;4384626;32;19901;-81
2023/01/08 11:06:50;;;;;;;;;;;4.80;85.60;;;-151.14;100.00;62537.16;4986346;28;2109126;-81
2023/01/08 11:09:21;;;;;;;;;;;4.70;85.60;;;-151.14;100.00;62537.16;5047987;28;20204;-81
2023/01/08 11:11:49;;;;;;;;;;;4.70;85.50;;;-151.14;100.00;62537.16;5047811;28;19927;-81
2023/01/08 11:14:20;;;;;;;;;;;4.70;85.60;;;-151.14;100.00;62537.16;5029440;28;19935;-81
2023/01/08 11:16:48;;;;;;;;;;;4.70;85.60;;;-151.14;100.00;62537.16;5046429;28;20216;-81
2023/01/08 11:19:19;;;;;;;;;;;4.70;85.60;;;-151.14;100.00;62537.16;5030100;28;20131;-81
2023/01/08 11:21:55;;;;;;;;;;;4.70;85.60;;;-151.14;100.00;62537.16;5030321;28;19921;-81
2023/01/08 11:24:24;;;;;;;;;;;4.70;85.60;;;-151.14;100.00;62537.16;5045748;28;20212;-81
2023/01/08 11:26:54;;;;;;;;;;;4.70;85.70;;;-151.14;100.00;62537.16;5046676;28;19927;-81